Time;durP1;ratioP1;P1;durP2;ratioP2;P2;SDS_P1;SDS_P2;PMS_P1;PMS_P2;Temp;Humidity;BMP_temperature;BMP_pressure;BME280_temperature;BME280_humidity;BME280_pressure;Samples;Min_cycle;Max_cycle;Signal;HPM_P1;HPM_P2
2021/12/08 00:00:15;;;;;;;4.47;3.90;;;;;;;4.25;94.34;99858.78;5075171;28;20167;-86
2021/12/08 00:02:40;;;;;;;5.17;3.70;;;;;;;4.18;94.58;99870.69;5041262;28;20324;-84
2021/12/08 00:05:07;;;;;;;4.87;4.07;;;;;;;4.17;96.44;99877.38;5078003;28;20257;-84
2021/12/08 00:07:34;;;;;;;6.27;4.10;;;;;;;3.99;96.62;99855.19;5076281;28;20186;-85
2021/12/08 00:10:14;;;;;;;7.30;4.60;;;;;;;4.13;96.67;99877.81;5075330;28;20181;-85
2021/12/08 00:15:26;;;;;;;5.83;4.40;;;;;;;4.05;96.08;99865.97;5074696;28;20231;-84
2021/12/08 00:17:52;;;;;;;6.80;4.70;;;;;;;4.02;96.13;99874.16;5075052;28;20232;-84
2021/12/08 00:20:17;;;;;;;8.03;4.93;;;;;;;4.06;96.90;99875.38;5074833;28;20257;-86
2021/12/08 00:22:43;;;;;;;6.07;4.87;;;;;;;3.96;97.08;99871.00;5074457;28;20198;-88
2021/12/08 00:25:09;;;;;;;6.80;4.87;;;;;;;3.88;98.08;99871.81;5074278;28;20566;-87
2021/12/08 00:27:34;;;;;;;6.70;4.53;;;;;;;3.79;99.00;99861.63;5074381;28;20209;-86
2021/12/08 00:30:00;;;;;;;6.50;4.97;;;;;;;3.88;98.79;99895.53;5074315;28;20182;-84
2021/12/08 00:32:28;;;;;;;8.73;5.70;;;;;;;3.68;100.00;99868.13;5074321;28;20271;-87
2021/12/08 00:34:54;;;;;;;8.27;6.07;;;;;;;3.76;100.00;99885.75;5074472;28;20206;-85
2021/12/08 00:37:22;;;;;;;10.57;6.20;;;;;;;3.81;100.00;99902.34;5074342;28;20185;-88
2021/12/08 00:39:47;;;;;;;7.00;5.00;;;;;;;3.76;99.70;99900.94;5074209;28;20638;-87
2021/12/08 00:42:13;;;;;;;7.90;4.53;;;;;;;3.39;100.00;99838.81;5073902;28;20197;-87
2021/12/08 00:44:38;;;;;;;9.17;5.67;;;;;;;3.61;99.36;99874.91;5074186;28;20178;-87
2021/12/08 00:47:04;;;;;;;9.73;5.63;;;;;;;3.70;99.79;99889.41;5074201;28;20267;-85
2021/12/08 00:49:30;;;;;;;9.70;5.83;;;;;;;3.51;99.32;99862.91;5056083;28;20175;-84
2021/12/08 00:51:56;;;;;;;7.13;4.63;;;;;;;3.69;99.96;99900.31;5073692;28;20191;-86
2021/12/08 00:54:21;;;;;;;8.97;5.20;;;;;;;3.63;100.00;99899.66;5073704;28;20711;-84
2021/12/08 00:56:47;;;;;;;8.23;5.23;;;;;;;3.61;100.00;99898.59;5073594;28;20206;-83
2021/12/08 00:59:12;;;;;;;5.20;4.30;;;;;;;3.54;100.00;99900.31;5074312;28;20175;-85
2021/12/08 01:01:38;;;;;;;4.67;4.17;;;;;;;3.47;100.00;99892.06;5056025;28;20178;-85
2021/12/08 01:04:06;;;;;;;7.53;4.57;;;;;;;3.40;100.00;99887.09;5073774;28;20178;-85
2021/12/08 01:06:31;;;;;;;6.10;4.10;;;;;;;3.43;100.00;99901.75;5073425;28;20226;-85
2021/12/08 01:08:57;;;;;;;6.07;4.70;;;;;;;3.41;100.00;99899.03;5074140;28;20183;-85
2021/12/08 01:11:23;;;;;;;6.20;4.73;;;;;;;3.39;100.00;99909.72;5057538;28;20283;-83
2021/12/08 01:13:50;;;;;;;5.93;5.33;;;;;;;3.48;100.00;99910.69;5078047;28;20193;-85
2021/12/08 01:16:18;;;;;;;6.33;5.17;;;;;;;3.38;100.00;99895.28;5058753;28;20186;-84
2021/12/08 01:18:44;;;;;;;6.70;5.00;;;;;;;3.40;100.00;99909.91;5058834;28;20175;-84
2021/12/08 01:21:12;;;;;;;5.87;4.77;;;;;;;3.41;100.00;99906.63;5077900;28;20175;-85
2021/12/08 01:23:39;;;;;;;8.63;5.40;;;;;;;3.44;100.00;99901.00;5080251;28;20308;-84
2021/12/08 01:26:06;;;;;;;6.33;4.93;;;;;;;3.41;100.00;99899.03;5075791;28;20693;-87
2021/12/08 01:28:32;;;;;;;8.67;5.50;;;;;;;3.43;100.00;99905.16;5075342;28;20175;-84
2021/12/08 01:30:59;;;;;;;7.50;5.60;;;;;;;3.38;100.00;99905.41;5057251;28;20218;-83
2021/12/08 01:33:27;;;;;;;5.43;4.60;;;;;;;3.34;100.00;99905.81;5076639;28;20171;-86
2021/12/08 01:35:53;;;;;;;6.40;4.83;;;;;;;3.42;100.00;99900.81;5075335;28;20181;-85
2021/12/08 01:38:19;;;;;;;5.80;5.00;;;;;;;3.41;100.00;99900.66;5073627;28;20166;-85
2021/12/08 01:40:46;;;;;;;8.57;5.60;;;;;;;3.45;100.00;99901.13;5072883;28;20202;-85
2021/12/08 01:43:24;;;;;;;5.97;4.83;;;;;;;3.43;99.79;99910.22;5073054;28;20284;-84
2021/12/08 01:45:57;;;;;;;6.87;5.47;;;;;;;3.33;100.00;99906.53;5072622;28;20219;-84
2021/12/08 01:48:23;;;;;;;6.13;5.03;;;;;;;3.31;100.00;99900.44;5072990;28;20254;-85
2021/12/08 01:50:52;;;;;;;6.97;5.07;;;;;;;3.30;100.00;99906.22;5073029;28;20257;-84
2021/12/08 01:53:19;;;;;;;7.37;4.87;;;;;;;3.34;99.66;99916.84;5054633;28;20194;-85
2021/12/08 01:55:45;;;;;;;6.10;4.70;;;;;;;3.15;100.00;99890.31;5072761;28;20184;-85
2021/12/08 01:58:12;;;;;;;7.60;5.03;;;;;;;3.22;100.00;99921.47;5072468;28;20637;-84
2021/12/08 02:00:42;;;;;;;6.50;4.57;;;;;;;3.21;100.00;99921.34;5072870;28;20186;-84
2021/12/08 02:03:08;;;;;;;8.10;5.40;;;;;;;3.18;100.00;99924.44;5072608;28;20166;-85
2021/12/08 02:05:34;;;;;;;7.17;5.00;;;;;;;3.20;100.00;99927.09;5071911;28;20716;-84
2021/12/08 02:08:00;;;;;;;7.77;5.80;;;;;;;3.22;100.00;99931.63;5073046;28;20171;-87
2021/12/08 02:10:26;;;;;;;7.10;5.60;;;;;;;3.29;100.00;99930.63;5073254;28;20182;-86
2021/12/08 02:12:54;;;;;;;6.97;5.00;;;;;;;3.34;99.20;99921.91;5074094;28;20176;-85
2021/12/08 02:15:20;;;;;;;6.57;4.93;;;;;;;3.24;99.85;99899.78;5074409;28;20222;-86
2021/12/08 02:17:49;;;;;;;6.73;4.43;;;;;;;3.39;97.91;99927.44;5075935;28;20178;-85
2021/12/08 02:20:15;;;;;;;7.37;4.77;;;;;;;3.39;98.86;99930.88;5085632;28;20193;-85
2021/12/08 02:22:42;;;;;;;4.87;4.30;;;;;;;3.37;98.60;99924.75;5093945;28;20193;-86
2021/12/08 02:25:10;;;;;;;6.60;4.90;;;;;;;3.29;98.91;99915.44;5093782;28;20170;-87
2021/12/08 02:27:36;;;;;;;5.27;4.50;;;;;;;3.37;98.43;99927.28;5097333;28;20202;-83
2021/12/08 02:30:16;;;;;;;7.57;5.57;;;;;;;3.42;97.25;99938.78;5098304;28;20188;-81
2021/12/08 02:49:10;;;;;;;6.53;5.07;;;;;;;3.34;98.23;99944.69;5084273;28;20649;-86
2021/12/08 02:51:36;;;;;;;8.90;5.00;;;;;;;3.37;97.89;99947.56;5073239;28;20167;-86
2021/12/08 02:54:04;;;;;;;6.63;5.30;;;;;;;3.31;98.47;99949.44;5072699;28;20175;-86
2021/12/08 02:56:30;;;;;;;6.63;4.60;;;;;;;2.98;97.60;99904.53;5072444;28;20178;-85
2021/12/08 02:58:58;;;;;;;5.97;4.70;;;;;;;3.18;98.42;99943.78;5071965;28;20181;-86
2021/12/08 03:01:24;;;;;;;7.00;5.27;;;;;;;3.13;98.74;99939.84;5072258;28;20556;-87
2021/12/08 03:03:50;;;;;;;8.27;5.57;;;;;;;3.04;98.57;99938.84;5072017;28;20163;-87
2021/12/08 03:06:15;;;;;;;7.80;5.83;;;;;;;2.91;100.00;99929.03;5071600;28;20321;-86
2021/12/08 03:08:41;;;;;;;8.47;6.00;;;;;;;2.97;100.00;99938.19;5072043;28;20660;-86
2021/12/08 03:11:07;;;;;;;7.90;6.17;;;;;;;2.97;100.00;99945.78;5053806;28;20185;-86
2021/12/08 03:13:57;;;;;;;8.27;5.63;;;;;;;3.02;99.85;99956.38;5071821;28;20321;-86
2021/12/08 03:16:22;;;;;;;8.43;5.77;;;;;;;3.06;100.00;99970.31;5072183;28;20688;-85
2021/12/08 03:18:48;;;;;;;8.03;5.27;;;;;;;3.05;100.00;99963.41;5075650;28;20214;-86
2021/12/08 03:21:15;;;;;;;7.10;5.37;;;;;;;3.04;100.00;99967.59;5057894;28;20171;-85
2021/12/08 03:26:11;;;;;;;7.53;6.03;;;;;;;2.92;100.00;99954.50;5076274;28;20231;-86
2021/12/08 03:28:44;;;;;;;7.97;5.53;;;;;;;3.05;100.00;99964.31;5075844;28;20285;-87
2021/12/08 03:31:15;;;;;;;10.77;6.53;;;;;;;2.99;100.00;99944.31;5075489;28;20169;-86
2021/12/08 03:33:43;;;;;;;7.97;6.20;;;;;;;3.10;100.00;99963.19;5075473;28;20159;-87
2021/12/08 03:36:08;;;;;;;11.97;6.27;;;;;;;2.89;100.00;99916.19;5076939;28;20175;-87
2021/12/08 03:38:34;;;;;;;9.33;6.23;;;;;;;3.06;99.71;99942.47;5075844;28;20241;-87
2021/12/08 03:41:03;;;;;;;9.73;6.40;;;;;;;3.20;99.79;99967.63;5075440;28;20196;-85
2021/12/08 03:43:28;;;;;;;9.20;6.37;;;;;;;3.24;99.84;99974.81;5075849;28;20167;-87
2021/12/08 03:45:55;;;;;;;8.20;6.67;;;;;;;3.09;100.00;99963.94;5075804;28;20574;-86
2021/12/08 03:48:28;;;;;;;12.60;6.90;;;;;;;3.14;100.00;99974.53;5058197;28;20174;-88
2021/12/08 03:50:54;;;;;;;11.30;7.13;;;;;;;3.11;100.00;99976.75;5073881;28;20293;-87
2021/12/08 03:53:21;;;;;;;9.13;6.40;;;;;;;3.05;100.00;99979.50;5075781;28;20178;-87
2021/12/08 03:55:49;;;;;;;10.90;7.53;;;;;;;2.83;100.00;99956.00;5075878;28;20175;-87
2021/12/08 03:58:15;;;;;;;11.77;7.50;;;;;;;2.97;100.00;99993.88;5075722;28;20202;-86
2021/12/08 04:00:43;;;;;;;14.90;8.20;;;;;;;2.90;100.00;99986.34;5057965;28;20207;-87
2021/12/08 04:03:09;;;;;;;12.37;7.40;;;;;;;2.99;100.00;99997.47;5075894;28;20194;-88
2021/12/08 04:05:52;;;;;;;14.90;8.07;;;;;;;3.01;100.00;99995.09;5075194;28;20681;-88
2021/12/08 04:08:29;;;;;;;14.03;7.00;;;;;;;3.05;100.00;99993.78;5057706;28;20212;-87
2021/12/08 04:10:55;;;;;;;12.10;7.93;;;;;;;2.96;100.00;99988.63;5075765;28;20170;-87
2021/12/08 04:13:27;;;;;;;13.90;7.70;;;;;;;2.93;100.00;99983.25;5075822;28;20179;-89
2021/12/08 04:15:54;;;;;;;12.30;7.83;;;;;;;2.90;100.00;99996.47;5075921;28;20181;-89
2021/12/08 04:18:20;;;;;;;10.87;7.40;;;;;;;2.99;100.00;100015.19;5075316;28;20630;-87
2021/12/08 04:20:51;;;;;;;11.17;7.97;;;;;;;3.00;100.00;100019.50;5076190;28;20245;-85
2021/12/08 04:23:19;;;;;;;11.43;7.27;;;;;;;2.92;100.00;99994.09;5075591;28;20182;-87
2021/12/08 04:25:50;;;;;;;12.47;8.13;;;;;;;3.07;100.00;100027.78;5058215;28;20293;-86
2021/12/08 04:28:23;;;;;;;15.17;7.80;;;;;;;2.63;100.00;99950.41;5075380;28;20178;-87
2021/12/08 04:30:51;;;;;;;12.90;8.10;;;;;;;2.93;100.00;100000.97;5076379;28;20649;-88
2021/12/08 04:33:17;;;;;;;16.47;8.53;;;;;;;3.03;100.00;100020.59;5076459;28;20179;-87
2021/12/08 04:35:47;;;;;;;13.27;8.80;;;;;;;2.98;100.00;100017.53;5077118;28;20197;-86
2021/12/08 04:38:24;;;;;;;17.37;9.47;;;;;;;3.04;100.00;100029.97;5058639;28;20174;-86
2021/12/08 04:41:04;;;;;;;15.63;8.97;;;;;;;2.98;100.00;100013.38;5075726;28;20224;-86
2021/12/08 04:44:06;;;;;;;12.67;8.53;;;;;;;3.09;100.00;100026.31;5074613;28;20165;-88
2021/12/08 04:50:08;;;;;;;12.17;7.93;;;;;;;3.23;100.00;100033.78;5074536;28;20163;-86
2021/12/08 04:52:03;;;;;;;10.80;7.57;;;;;;;3.16;100.00;100011.06;5066189;28;20191;-87
2021/12/08 05:00:43;;;;;;;14.20;7.43;;;;;;;3.12;100.00;100032.63;5075422;28;20227;-86
2021/12/08 05:08:22;;;;;;;13.20;7.77;;;;;;;3.18;100.00;100035.81;5077182;28;20253;-86
2021/12/08 05:10:50;;;;;;;24.50;14.33;;;;;;;3.34;100.00;100042.56;5076287;28;20166;-87
2021/12/08 05:13:17;;;;;;;15.93;9.90;;;;;;;3.39;100.00;100049.88;5074993;28;20182;-88
2021/12/08 05:15:49;;;;;;;11.00;7.90;;;;;;;3.35;100.00;100047.78;5074109;28;20279;-86
2021/12/08 05:18:26;;;;;;;15.93;10.03;;;;;;;3.13;100.00;100030.97;5073910;28;20179;-87
2021/12/08 05:21:05;;;;;;;17.07;9.83;;;;;;;3.32;100.00;100049.06;5074030;28;20170;-85
2021/12/08 05:24:03;;;;;;;12.50;8.33;;;;;;;3.38;100.00;100054.81;5073677;28;20181;-87
2021/12/08 05:26:40;;;;;;;12.20;7.97;;;;;;;3.36;100.00;100051.19;5062069;28;20492;-86
2021/12/08 05:29:35;;;;;;;11.10;7.50;;;;;;;3.33;100.00;100061.00;5074144;28;20170;-87
2021/12/08 05:32:04;;;;;;;12.53;7.17;;;;;;;3.39;100.00;100061.66;5071699;28;20193;-87
2021/12/08 05:34:33;;;;;;;15.13;9.77;;;;;;;3.30;100.00;100065.72;5073906;28;20237;-88
2021/12/08 05:36:59;;;;;;;13.57;8.57;;;;;;;3.27;100.00;100068.84;5056482;28;20203;-89
2021/12/08 05:39:30;;;;;;;14.03;8.57;;;;;;;3.21;100.00;100047.91;5073067;28;20181;-89
2021/12/08 05:42:04;;;;;;;9.20;7.47;;;;;;;3.37;100.00;100073.28;5075989;28;20634;-86
2021/12/08 05:44:30;;;;;;;12.53;7.83;;;;;;;3.36;100.00;100084.13;5074497;28;20250;-82
2021/12/08 05:46:59;;;;;;;10.60;8.13;;;;;;;3.16;100.00;100087.91;5073011;28;20756;-84
2021/12/08 05:49:25;;;;;;;12.97;9.13;;;;;;;3.21;100.00;100084.25;5073353;28;20171;-84
2021/12/08 05:51:54;;;;;;;12.07;8.50;;;;;;;3.25;100.00;100088.00;5072825;28;20173;-86
2021/12/08 05:54:41;;;;;;;14.77;9.00;;;;;;;3.17;100.00;100073.59;5072864;28;20257;-89
2021/12/08 05:57:11;;;;;;;14.07;9.27;;;;;;;3.38;100.00;100098.75;5073674;28;20717;-84
2021/12/08 05:59:37;;;;;;;16.67;9.60;;;;;;;3.32;100.00;100089.59;5073725;28;20240;-87
2021/12/08 06:02:17;;;;;;;16.53;10.37;;;;;;;3.03;100.00;100046.78;5074207;28;20182;-83
2021/12/08 06:04:43;;;;;;;16.23;8.80;;;;;;;3.38;100.00;100108.88;5074044;28;20270;-89
2021/12/08 06:07:10;;;;;;;16.30;11.00;;;;;;;3.39;100.00;100099.66;5077023;28;20203;-89
2021/12/08 06:09:38;;;;;;;18.10;10.77;;;;;;;3.42;100.00;100110.13;5074626;28;20174;-87
2021/12/08 06:12:06;;;;;;;19.70;11.53;;;;;;;3.39;100.00;100112.31;5054463;28;20166;-80
2021/12/08 06:14:33;;;;;;;20.17;11.60;;;;;;;3.48;100.00;100108.25;5071982;28;20223;-81
2021/12/08 06:17:06;;;;;;;17.47;11.77;;;;;;;3.51;100.00;100121.25;5072267;28;20175;-84
2021/12/08 06:19:33;;;;;;;20.87;12.93;;;;;;;3.62;100.00;100117.38;5072377;28;20578;-82
2021/12/08 06:21:58;;;;;;;19.93;11.87;;;;;;;3.61;100.00;100121.50;5072165;28;20177;-81
2021/12/08 06:24:24;;;;;;;20.53;13.07;;;;;;;3.51;100.00;100122.88;5072204;28;20179;-82
2021/12/08 06:26:51;;;;;;;29.20;16.80;;;;;;;3.54;100.00;100118.16;5054226;28;20202;-82
2021/12/08 06:29:18;;;;;;;23.37;13.97;;;;;;;3.62;100.00;100130.03;5072004;28;20625;-83
2021/12/08 06:31:46;;;;;;;26.70;14.77;;;;;;;3.67;100.00;100122.19;5072030;28;20209;-82
2021/12/08 06:34:11;;;;;;;20.47;13.80;;;;;;;3.40;100.00;100079.56;5071957;28;20167;-86
2021/12/08 06:36:48;;;;;;;22.10;12.60;;;;;;;3.57;100.00;100113.44;5071842;28;20622;-84
2021/12/08 06:39:20;;;;;;;23.13;13.23;;;;;;;3.67;100.00;100126.34;5071964;28;20237;-85
2021/12/08 06:41:51;;;;;;;20.97;12.83;;;;;;;3.69;100.00;100135.94;5072097;28;20174;-83
2021/12/08 06:44:26;;;;;;;23.57;14.60;;;;;;;3.54;100.00;100114.00;5053247;28;20205;-82
2021/12/08 06:46:54;;;;;;;21.67;13.90;;;;;;;3.67;100.00;100133.94;5053463;28;20229;-81
2021/12/08 06:49:21;;;;;;;23.00;13.80;;;;;;;3.74;100.00;100138.97;5071751;28;20213;-83
2021/12/08 06:52:04;;;;;;;27.17;16.47;;;;;;;3.63;100.00;100121.69;5071596;28;20182;-81
2021/12/08 06:54:34;;;;;;;27.50;16.60;;;;;;;3.76;100.00;100157.75;5071366;28;20171;-82
2021/12/08 06:57:06;;;;;;;28.70;16.53;;;;;;;3.77;100.00;100153.59;5071684;28;20195;-82
2021/12/08 06:59:36;;;;;;;26.30;15.50;;;;;;;3.85;100.00;100162.94;5071990;28;20202;-82
2021/12/08 07:02:17;;;;;;;24.73;14.80;;;;;;;3.85;100.00;100168.91;5037151;28;20213;-84
2021/12/08 07:07:44;;;;;;;24.87;14.70;;;;;;;3.82;100.00;100155.91;5047807;28;20401;-84
2021/12/08 07:10:19;;;;;;;23.27;13.50;;;;;;;3.78;100.00;100175.69;5071269;28;20170;-82
2021/12/08 07:12:48;;;;;;;24.67;15.03;;;;;;;3.87;100.00;100169.97;5071692;28;20278;-83
2021/12/08 07:15:45;;;;;;;26.27;15.43;;;;;;;3.79;100.00;100169.88;5071696;28;20170;-84
2021/12/08 07:18:21;;;;;;;69.57;26.23;;;;;;;3.89;100.00;100168.53;5071257;28;20213;-82
2021/12/08 07:20:52;;;;;;;33.13;18.00;;;;;;;3.94;100.00;100167.38;5071834;28;20576;-81
2021/12/08 07:23:36;;;;;;;37.70;21.17;;;;;;;3.86;100.00;100163.13;5053270;28;20563;-82
2021/12/08 07:26:07;;;;;;;37.73;22.00;;;;;;;3.98;100.00;100177.84;5070873;28;20248;-83
2021/12/08 07:28:33;;;;;;;38.37;21.73;;;;;;;3.98;100.00;100172.78;5053223;28;20190;-84
2021/12/08 07:31:15;;;;;;;41.80;23.80;;;;;;;3.85;100.00;100173.97;5071066;28;20214;-81
2021/12/08 07:33:43;;;;;;;38.73;22.37;;;;;;;3.85;100.00;100171.44;5052796;28;20178;-82
2021/12/08 07:36:15;;;;;;;38.27;20.67;;;;;;;3.92;100.00;100181.53;5071087;28;20171;-82
2021/12/08 07:38:41;;;;;;;38.63;20.67;;;;;;;3.83;100.00;100167.84;5071557;28;20171;-83
2021/12/08 07:41:08;;;;;;;42.40;22.70;;;;;;;3.96;100.00;100186.91;5072205;28;20195;-82
2021/12/08 07:43:39;;;;;;;30.30;18.47;;;;;;;3.99;100.00;100172.97;5071475;28;20209;-82
2021/12/08 07:46:25;;;;;;;33.93;20.47;;;;;;;4.00;100.00;100184.88;5071746;28;20259;-81
2021/12/08 07:48:56;;;;;;;28.30;18.33;;;;;;;4.05;100.00;100198.03;5075211;28;20218;-82
2021/12/08 07:51:30;;;;;;;26.93;17.17;;;;;;;4.02;100.00;100182.50;5073727;28;20174;-80
2021/12/08 07:53:56;;;;;;;33.50;17.87;;;;;;;3.99;100.00;100198.31;5073109;28;20171;-82
2021/12/08 07:56:24;;;;;;;28.77;18.10;;;;;;;3.83;100.00;100172.94;5073133;28;20171;-83
2021/12/08 07:59:00;;;;;;;30.23;17.30;;;;;;;3.98;100.00;100214.22;5057013;28;20191;-81
2021/12/08 08:01:33;;;;;;;31.37;17.73;;;;;;;3.97;100.00;100222.56;5080604;28;20194;-81
2021/12/08 08:04:02;;;;;;;27.90;17.57;;;;;;;4.06;100.00;100225.22;5085308;28;20175;-80
2021/12/08 08:06:33;;;;;;;28.03;17.50;;;;;;;3.92;100.00;100208.50;5086005;28;20234;-80
2021/12/08 08:08:59;;;;;;;32.90;17.93;;;;;;;3.99;100.00;100222.72;5086725;28;20174;-81
2021/12/08 08:11:35;;;;;;;34.40;21.00;;;;;;;4.06;100.00;100215.97;5070729;28;20190;-80
2021/12/08 08:14:03;;;;;;;33.33;20.77;;;;;;;4.11;100.00;100216.47;5084223;28;20181;-81
2021/12/08 08:16:35;;;;;;;34.87;19.67;;;;;;;4.14;100.00;100226.94;5080997;28;20181;-81
2021/12/08 08:19:09;;;;;;;37.13;20.67;;;;;;;4.25;100.00;100228.13;5061602;28;20162;-81
2021/12/08 08:21:40;;;;;;;35.53;18.73;;;;;;;4.12;100.00;100224.25;5078101;28;20170;-82
2021/12/08 08:24:07;;;;;;;34.03;18.87;;;;;;;4.10;100.00;100218.09;5078996;28;20175;-82
2021/12/08 08:26:34;;;;;;;42.43;21.67;;;;;;;4.23;100.00;100225.41;5077114;28;20208;-81
2021/12/08 08:29:00;;;;;;;42.23;22.27;;;;;;;4.22;100.00;100227.78;5079014;28;20197;-83
2021/12/08 08:31:59;;;;;;;35.70;20.47;;;;;;;4.11;100.00;100219.00;5081114;28;20170;-82
2021/12/08 08:34:37;;;;;;;51.33;25.60;;;;;;;3.97;100.00;100182.03;5067265;28;20691;-82
2021/12/08 08:37:05;;;;;;;53.63;28.37;;;;;;;4.23;100.00;100227.94;5068077;28;20605;-80
2021/12/08 08:39:35;;;;;;;48.33;26.73;;;;;;;4.28;100.00;100223.38;5087725;28;20186;-82
2021/12/08 08:42:07;;;;;;;41.50;23.10;;;;;;;4.29;100.00;100223.53;5080867;28;20163;-80
2021/12/08 08:44:41;;;;;;;40.77;22.90;;;;;;;4.24;100.00;100209.47;5079812;28;20258;-82
2021/12/08 08:47:13;;;;;;;43.10;23.13;;;;;;;4.35;100.00;100224.19;5080534;28;20207;-81
2021/12/08 08:49:40;;;;;;;41.70;22.37;;;;;;;4.33;100.00;100209.53;5083631;28;20171;-83
2021/12/08 08:52:25;;;;;;;40.60;22.63;;;;;;;4.36;100.00;100212.41;5078659;28;20179;-81
2021/12/08 08:54:53;;;;;;;40.70;21.97;;;;;;;4.23;100.00;100182.28;5083056;28;20171;-82
2021/12/08 08:57:39;;;;;;;34.47;20.40;;;;;;;4.46;100.00;100210.16;5081381;28;20198;-82
2021/12/08 09:00:16;;;;;;;37.47;20.67;;;;;;;4.37;100.00;100207.50;5061189;28;20225;-83
2021/12/08 09:02:41;;;;;;;38.70;21.97;;;;;;;4.27;100.00;100181.91;5076343;28;20162;-81
2021/12/08 09:05:36;;;;;;;35.63;20.97;;;;;;;4.32;100.00;100203.56;5076367;28;20607;-82
2021/12/08 09:08:04;;;;;;;36.17;21.13;;;;;;;4.41;100.00;100201.13;5072864;28;20194;-81
2021/12/08 09:10:55;;;;;;;36.47;20.60;;;;;;;4.41;100.00;100201.13;5075466;28;20173;-81
2021/12/08 09:13:29;;;;;;;42.77;21.80;;;;;;;4.46;100.00;100197.47;5073976;28;20593;-81
2021/12/08 09:16:02;;;;;;;37.80;22.10;;;;;;;4.38;100.00;100170.38;5072626;28;20193;-80
2021/12/08 09:18:42;;;;;;;41.17;21.37;;;;;;;4.65;100.00;100190.16;5073412;28;20166;-82
2021/12/08 09:21:27;;;;;;;41.53;21.23;;;;;;;4.56;100.00;100169.78;5073448;28;20646;-83
2021/12/08 09:24:17;;;;;;;41.70;21.97;;;;;;;4.48;100.00;100179.84;5073685;28;20159;-82
2021/12/08 09:26:52;;;;;;;45.00;24.47;;;;;;;4.56;100.00;100181.56;5073524;28;20224;-81
2021/12/08 09:29:36;;;;;;;43.23;22.57;;;;;;;4.59;100.00;100174.28;5072787;28;20634;-81
2021/12/08 09:32:08;;;;;;;48.30;26.70;;;;;;;4.57;100.00;100171.56;5073085;28;20175;-81
2021/12/08 09:34:42;;;;;;;48.20;25.47;;;;;;;4.47;100.00;100155.22;5038458;28;20181;-79
2021/12/08 09:37:15;;;;;;;49.53;26.87;;;;;;;4.67;100.00;100170.00;5072931;28;20166;-82
2021/12/08 09:39:48;;;;;;;47.50;24.77;;;;;;;4.65;100.00;100167.34;5055076;28;20324;-82
2021/12/08 09:42:48;;;;;;;50.57;26.57;;;;;;;4.71;100.00;100159.47;5072673;28;20167;-81
2021/12/08 09:45:18;;;;;;;50.63;25.73;;;;;;;4.78;100.00;100165.34;5058087;28;20666;-80
2021/12/08 09:47:44;;;;;;;49.40;26.40;;;;;;;4.81;100.00;100168.19;5073058;28;20283;-80
2021/12/08 09:50:11;;;;;;;43.93;23.10;;;;;;;4.99;100.00;100178.50;5073024;28;20313;-80
2021/12/08 09:52:37;;;;;;;46.53;25.53;;;;;;;4.96;100.00;100174.00;5073445;28;20170;-82
2021/12/08 09:55:05;;;;;;;46.43;24.13;;;;;;;4.87;100.00;100165.41;5073496;28;20182;-81
2021/12/08 09:57:30;;;;;;;42.43;22.90;;;;;;;4.85;100.00;100177.94;5054892;28;20194;-80
2021/12/08 09:59:56;;;;;;;42.00;23.83;;;;;;;4.92;100.00;100178.56;5073164;28;20183;-82
2021/12/08 10:02:33;;;;;;;46.00;25.17;;;;;;;4.91;100.00;100172.59;5073449;28;20178;-81
2021/12/08 10:05:03;;;;;;;45.93;24.40;;;;;;;5.02;100.00;100167.03;5072838;28;20232;-80
2021/12/08 10:07:28;;;;;;;45.13;25.77;;;;;;;5.01;100.00;100166.84;5073813;28;20627;-82
2021/12/08 10:09:55;;;;;;;46.67;25.17;;;;;;;5.03;100.00;100173.00;5076684;28;20175;-81
2021/12/08 10:12:20;;;;;;;51.90;23.27;;;;;;;5.04;100.00;100175.69;5078482;28;20170;-81
2021/12/08 10:14:47;;;;;;;45.03;23.77;;;;;;;5.02;100.00;100174.63;5080287;28;20175;-81
2021/12/08 10:17:14;;;;;;;43.13;22.97;;;;;;;4.90;100.00;100147.97;5079274;28;20235;-81
2021/12/08 10:19:41;;;;;;;45.33;23.77;;;;;;;5.08;100.00;100172.75;5079837;28;20190;-83
2021/12/08 10:22:27;;;;;;;47.03;23.70;;;;;;;5.15;100.00;100179.34;5082238;28;20197;-81
2021/12/08 10:25:15;;;;;;;48.37;24.77;;;;;;;5.06;100.00;100166.59;5083018;28;20190;-81
2021/12/08 10:28:04;;;;;;;49.27;24.83;;;;;;;4.94;100.00;100172.03;5081052;28;20209;-80
2021/12/08 10:30:33;;;;;;;45.43;24.53;;;;;;;4.91;100.00;100162.44;5084463;28;20183;-80
2021/12/08 10:33:00;;;;;;;49.40;24.83;;;;;;;4.93;100.00;100178.75;5082374;28;20197;-83
2021/12/08 10:35:48;;;;;;;48.57;25.27;;;;;;;4.91;100.00;100176.78;5090230;28;20171;-83
2021/12/08 10:38:16;;;;;;;46.23;25.03;;;;;;;5.00;100.00;100175.22;5086756;28;20167;-81
2021/12/08 10:41:00;;;;;;;47.67;23.90;;;;;;;5.04;100.00;100182.41;5088680;28;20200;-81
2021/12/08 10:43:26;;;;;;;50.47;26.47;;;;;;;4.94;100.00;100166.94;5086857;28;20626;-80
2021/12/08 10:46:09;;;;;;;46.67;25.13;;;;;;;4.92;100.00;100163.34;5084199;28;20198;-80
2021/12/08 10:48:41;;;;;;;52.53;27.73;;;;;;;4.78;100.00;100159.38;5085096;28;20175;-81
2021/12/08 10:54:25;;;;;;;55.17;28.73;;;;;;;4.90;100.00;100180.97;5078916;28;20174;-79
2021/12/08 10:56:56;;;;;;;55.80;27.77;;;;;;;4.72;100.00;100154.53;5075307;28;20191;-80
2021/12/08 10:59:25;;;;;;;52.83;27.47;;;;;;;4.78;100.00;100165.34;5074669;28;20226;-80
2021/12/08 11:01:51;;;;;;;63.23;30.20;;;;;;;4.78;100.00;100170.41;5074521;28;20171;-81
2021/12/08 11:04:17;;;;;;;64.63;32.80;;;;;;;4.87;100.00;100180.66;5075614;28;20634;-84
2021/12/08 11:06:44;;;;;;;63.57;31.30;;;;;;;4.75;100.00;100148.91;5072759;28;20237;-84
2021/12/08 11:09:15;;;;;;;54.43;29.47;;;;;;;4.97;100.00;100174.88;5077198;28;20220;-85
2021/12/08 11:11:43;;;;;;;61.70;30.97;;;;;;;4.92;99.94;100149.00;5056413;28;20197;-84
2021/12/08 11:14:10;;;;;;;51.53;26.43;;;;;;;4.64;99.83;100109.69;5075776;28;20741;-85
2021/12/08 11:16:40;;;;;;;52.20;27.90;;;;;;;5.04;98.97;100169.72;5059683;28;20662;-84
2021/12/08 11:19:22;;;;;;;55.80;27.37;;;;;;;5.21;100.00;100152.06;5071645;28;20554;-77
2021/12/08 11:21:53;;;;;;;63.70;34.97;;;;;;;5.57;100.00;100170.16;5072776;28;20190;-84
2021/12/08 11:24:32;;;;;;;68.53;35.58;;;;;;;5.46;97.67;100162.22;5072165;28;20533;-82
2021/12/08 11:26:59;;;;;;;47.23;25.97;;;;;;;5.33;97.14;100160.94;5053853;28;20202;-81
2021/12/08 11:29:28;;;;;;;52.42;27.42;;;;;;;5.56;94.64;100167.47;5074926;28;20170;-80
2021/12/08 11:31:55;;;;;;;49.00;25.60;;;;;;;5.49;95.13;100175.22;5071649;28;20232;-83
2021/12/08 11:34:32;;;;;;;41.63;22.80;;;;;;;5.51;93.61;100176.25;5071399;28;20672;-83
2021/12/08 11:37:01;;;;;;;46.72;25.45;;;;;;;5.48;94.21;100170.88;5054109;28;20235;-83
2021/12/08 11:39:40;;;;;;;52.65;27.33;;;;;;;5.53;95.90;100165.50;5077283;28;20175;-86
2021/12/08 11:42:12;;;;;;;44.03;23.73;;;;;;;5.54;94.73;100184.19;5076124;28;20174;-84
2021/12/08 11:44:43;;;;;;;47.47;25.48;;;;;;;5.46;92.46;100162.22;5076107;28;20182;-83
2021/12/08 11:47:11;;;;;;;45.40;25.73;;;;;;;5.48;93.34;100183.56;5075618;28;20297;-86
2021/12/08 11:49:50;;;;;;;43.87;24.73;;;;;;;5.48;92.89;100184.50;5075481;28;20202;-85
2021/12/08 11:52:20;;;;;;;38.38;21.90;;;;;;;5.31;91.78;100151.34;5075543;28;20194;-85
2021/12/08 11:55:02;;;;;;;41.07;22.07;;;;;;;5.64;91.54;100186.03;5059797;28;20269;-86
2021/12/08 11:57:36;;;;;;;40.47;21.30;;;;;;;5.46;93.61;100191.03;5079756;28;20583;-86
2021/12/08 12:00:21;;;;;;;42.20;22.20;;;;;;;5.62;91.82;100201.16;5076323;28;20215;-87
2021/12/08 12:02:56;;;;;;;44.80;22.63;;;;;;;5.39;92.38;100149.59;5077295;28;20637;-80
2021/12/08 12:05:26;;;;;;;40.73;21.73;;;;;;;5.72;91.67;100198.78;5074469;28;20230;-80
2021/12/08 12:07:52;;;;;;;41.05;23.00;;;;;;;5.74;91.35;100182.06;5074310;28;20191;-79
2021/12/08 12:10:20;;;;;;;38.53;22.35;;;;;;;5.77;91.28;100184.03;5074515;28;20174;-83
2021/12/08 12:12:46;;;;;;;40.80;22.37;;;;;;;5.60;90.39;100149.25;5074293;28;20577;-81
2021/12/08 12:15:17;;;;;;;41.83;23.05;;;;;;;5.84;90.22;100190.63;5074249;28;20178;-80
2021/12/08 12:17:43;;;;;;;43.08;23.55;;;;;;;5.73;90.74;100180.28;5073876;28;20611;-79